Terminal Aerodrome Forecast
Issued by NWS Des Moines, IA

Home | Current Version | Previous Version | Text Only | Print | Product List | Glossary On
Versions: 1 2 3 4 5 6 7 8 9 10 11 12 13 14 15 16 17 18 19 20 21 22 23 24 25 26 27 28 29 30 31
000
FTUS43 KDMX 062320
TAFDSM
TAF
KDSM 062320Z 0700/0724 35011G17KT P6SM FEW020 SCT030
      TEMPO 0700/0702 5SM HZ BKN025
     FM070200 35009KT 4SM HZ FEW050
     FM071400 03009KT P6SM SKC=

USA.gov is the U.S. government's official web portal to all federal, state and local government web resources and services.